Time;durP1;ratioP1;P1;durP2;ratioP2;P2;SDS_P1;SDS_P2;PMS_P1;PMS_P2;Temp;Humidity;BMP_temperature;BMP_pressure;BME280_temperature;BME280_humidity;BME280_pressure;Samples;Min_cycle;Max_cycle;Signal;HPM_P1;HPM_P2
2022/01/10 00:02:08;;;;;;;12.90;8.90;;;8.40;99.90;;;;;;5032979;28;20699;-72
2022/01/10 00:04:34;;;;;;;18.20;9.63;;;8.40;99.90;;;;;;5051784;28;20403;-72
2022/01/10 00:06:59;;;;;;;17.63;10.50;;;8.40;99.90;;;;;;5050236;28;20482;-72
2022/01/10 00:09:25;;;;;;;13.00;9.67;;;8.40;99.90;;;;;;5033788;28;20193;-72
2022/01/10 00:11:51;;;;;;;17.67;9.90;;;8.40;99.90;;;;;;5051307;28;20178;-72
2022/01/10 00:14:16;;;;;;;20.73;10.50;;;8.40;99.90;;;;;;5050674;28;20709;-72
2022/01/10 00:16:42;;;;;;;13.17;10.03;;;8.60;99.90;;;;;;5051496;28;20178;-72
2022/01/10 00:19:08;;;;;;;17.33;9.93;;;8.50;99.90;;;;;;5050662;28;20185;-72
2022/01/10 00:21:34;;;;;;;13.77;9.53;;;8.50;99.90;;;;;;5053867;28;20519;-72
2022/01/10 00:23:59;;;;;;;18.47;10.93;;;8.40;99.90;;;;;;5054770;28;20181;-72
2022/01/10 00:26:25;;;;;;;14.80;9.30;;;8.50;99.90;;;;;;5054933;28;20484;-72
2022/01/10 00:28:51;;;;;;;16.47;11.27;;;8.60;99.90;;;;;;5055239;28;20649;-72
2022/01/10 00:31:18;;;;;;;12.10;9.10;;;8.40;99.90;;;;;;5055249;28;20209;-72
2022/01/10 00:33:44;;;;;;;15.03;10.37;;;8.40;99.90;;;;;;5055414;28;20404;-72
2022/01/10 00:36:09;;;;;;;15.73;10.20;;;8.30;99.90;;;;;;5053604;28;20455;-72
2022/01/10 00:38:35;;;;;;;12.57;9.67;;;8.10;99.90;;;;;;5036969;28;20482;-72
2022/01/10 00:41:02;;;;;;;20.23;11.30;;;8.30;99.90;;;;;;5053319;28;20180;-72
2022/01/10 00:43:39;;;;;;;12.80;10.50;;;8.50;99.90;;;;;;5054473;28;20459;-72
2022/01/10 00:46:05;;;;;;;15.40;11.10;;;8.40;99.90;;;;;;5053707;28;20456;-72
2022/01/10 00:48:31;;;;;;;16.93;11.03;;;8.30;99.90;;;;;;5054564;28;20415;-72
2022/01/10 00:50:57;;;;;;;18.20;11.27;;;8.00;99.90;;;;;;5019020;28;20178;-72
2022/01/10 00:53:23;;;;;;;18.97;10.80;;;8.30;99.90;;;;;;5054438;28;20415;-72
2022/01/10 00:55:49;;;;;;;14.00;10.90;;;8.30;99.90;;;;;;5054364;28;20458;-72
2022/01/10 00:58:15;;;;;;;17.43;10.93;;;8.30;99.90;;;;;;5053565;28;20517;-71
2022/01/10 01:00:41;;;;;;;14.67;10.50;;;8.10;99.90;;;;;;5054177;28;20182;-72
2022/01/10 01:03:06;;;;;;;20.57;12.23;;;8.30;99.90;;;;;;5053747;28;20632;-71
2022/01/10 01:05:38;;;;;;;18.63;11.10;;;8.30;99.90;;;;;;5054130;28;20296;-72
2022/01/10 01:08:06;;;;;;;19.07;10.90;;;8.30;99.90;;;;;;5053264;28;20177;-72
2022/01/10 01:26:25;;;;;;;13.70;10.00;;;8.40;99.90;;;;;;5053827;28;20452;-72
2022/01/10 01:28:51;;;;;;;16.47;10.90;;;8.40;99.90;;;;;;5050448;28;20863;-72
2022/01/10 01:31:17;;;;;;;17.47;9.10;;;8.40;99.90;;;;;;5032853;28;20416;-72
2022/01/10 01:33:42;;;;;;;16.33;10.27;;;8.40;99.90;;;;;;5033363;28;20206;-72
2022/01/10 01:36:08;;;;;;;16.00;9.43;;;8.40;99.90;;;;;;5032969;28;20642;-72
2022/01/10 01:38:36;;;;;;;17.30;10.37;;;8.40;99.90;;;;;;5033434;28;20171;-72
2022/01/10 01:43:43;;;;;;;17.03;11.03;;;8.40;99.90;;;;;;5033280;28;20465;-72
2022/01/10 01:46:09;;;;;;;14.93;10.60;;;8.40;99.90;;;;;;5032769;28;20968;-72
2022/01/10 01:48:35;;;;;;;19.27;11.40;;;8.50;99.90;;;;;;5039726;28;21007;-72
2022/01/10 01:51:02;;;;;;;14.60;9.93;;;8.40;99.90;;;;;;5052528;28;20487;-72
2022/01/10 01:53:30;;;;;;;11.60;10.30;;;8.20;99.90;;;;;;5053047;28;20635;-72
2022/01/10 01:55:57;;;;;;;14.93;9.73;;;8.30;99.90;;;;;;5052956;28;20942;-72
2022/01/10 01:58:23;;;;;;;13.10;10.10;;;8.30;99.90;;;;;;5052607;28;20412;-72
2022/01/10 02:00:49;;;;;;;18.03;10.00;;;8.20;99.90;;;;;;5052923;28;20405;-72
2022/01/10 02:03:15;;;;;;;17.40;9.70;;;7.90;99.90;;;;;;5052257;28;20424;-72
2022/01/10 02:05:40;;;;;;;22.13;10.90;;;8.20;99.90;;;;;;5052716;28;20213;-72
2022/01/10 02:08:08;;;;;;;17.10;10.80;;;8.10;99.90;;;;;;5034162;28;20174;-72
2022/01/10 02:10:34;;;;;;;14.33;10.00;;;8.20;99.90;;;;;;5053087;28;20176;-72
2022/01/10 02:13:00;;;;;;;15.17;10.93;;;8.20;99.90;;;;;;5052757;28;20499;-72
2022/01/10 02:15:50;;;;;;;19.17;11.87;;;8.20;99.90;;;;;;5034891;28;20586;-72
2022/01/10 02:18:18;;;;;;;15.43;10.10;;;8.20;99.90;;;;;;5034242;28;20231;-72
2022/01/10 02:20:45;;;;;;;16.53;10.87;;;8.20;99.90;;;;;;5052589;28;20416;-72
2022/01/10 02:23:11;;;;;;;15.73;10.10;;;8.20;99.90;;;;;;5052003;28;20415;-72
2022/01/10 02:25:36;;;;;;;17.13;10.47;;;8.20;99.90;;;;;;5052622;28;20460;-72
2022/01/10 02:28:03;;;;;;;15.33;10.10;;;8.10;99.90;;;;;;5052125;28;20494;-72
2022/01/10 02:30:29;;;;;;;18.50;11.60;;;8.20;99.90;;;;;;5052673;28;20180;-72
2022/01/10 02:32:57;;;;;;;15.77;9.90;;;8.10;99.90;;;;;;5052329;28;20415;-72
2022/01/10 02:35:33;;;;;;;20.80;11.60;;;8.00;99.90;;;;;;5033792;28;20394;-72
2022/01/10 02:37:59;;;;;;;15.13;10.30;;;7.90;99.90;;;;;;5052303;28;20488;-72
2022/01/10 02:40:28;;;;;;;22.53;10.30;;;8.00;99.90;;;;;;5051642;28;20420;-72
2022/01/10 02:42:55;;;;;;;16.47;10.10;;;7.90;99.90;;;;;;5051553;28;20471;-71
2022/01/10 02:45:21;;;;;;;12.93;9.50;;;7.90;99.90;;;;;;5051083;28;20478;-72
2022/01/10 02:47:48;;;;;;;17.27;11.63;;;7.80;99.90;;;;;;5034662;28;20979;-72
2022/01/10 02:50:15;;;;;;;17.80;11.27;;;7.70;99.90;;;;;;5033806;28;20930;-72
2022/01/10 02:52:41;;;;;;;13.33;9.70;;;7.70;99.90;;;;;;5052677;28;20509;-72
2022/01/10 02:55:08;;;;;;;15.30;10.40;;;7.60;99.90;;;;;;5051485;28;20532;-72
2022/01/10 02:57:34;;;;;;;16.70;9.70;;;7.60;99.90;;;;;;5052101;28;20196;-72
2022/01/10 03:00:06;;;;;;;15.83;10.00;;;7.20;99.90;;;;;;5034069;28;20442;-71
2022/01/10 03:02:32;;;;;;;15.83;10.03;;;7.50;99.90;;;;;;5028277;28;20413;-72
2022/01/10 03:04:58;;;;;;;17.00;10.03;;;7.40;99.90;;;;;;5052066;28;20498;-72
2022/01/10 03:07:24;;;;;;;16.73;9.93;;;7.40;99.90;;;;;;5033562;28;20483;-72
2022/01/10 03:09:51;;;;;;;18.90;11.40;;;7.40;99.90;;;;;;5052001;28;20181;-72
2022/01/10 03:12:17;;;;;;;20.57;10.80;;;7.40;99.90;;;;;;5051274;28;20498;-72
2022/01/10 03:14:43;;;;;;;17.60;10.53;;;6.90;99.90;;;;;;5052356;28;20462;-71
2022/01/10 03:17:10;;;;;;;18.70;11.87;;;7.30;99.90;;;;;;5051097;28;20459;-72
2022/01/10 03:19:37;;;;;;;25.53;11.70;;;7.40;99.90;;;;;;5051606;28;20501;-72
2022/01/10 03:22:04;;;;;;;17.77;11.63;;;7.40;99.90;;;;;;5051381;28;20389;-72
2022/01/10 03:24:30;;;;;;;19.37;12.47;;;7.30;99.90;;;;;;5051416;28;20472;-72
2022/01/10 03:26:55;;;;;;;18.50;12.30;;;7.40;99.90;;;;;;5033530;28;21068;-72
2022/01/10 03:29:21;;;;;;;23.10;12.47;;;7.30;99.90;;;;;;5033074;28;20418;-72
2022/01/10 03:31:47;;;;;;;20.60;12.67;;;7.40;99.90;;;;;;5051696;28;20180;-72
2022/01/10 03:34:13;;;;;;;17.47;11.33;;;7.40;99.90;;;;;;5051157;28;20433;-72
2022/01/10 03:36:40;;;;;;;21.63;12.90;;;7.40;99.90;;;;;;5034269;28;20427;-72
2022/01/10 03:39:06;;;;;;;16.27;12.57;;;7.40;99.90;;;;;;5048261;28;20447;-72
2022/01/10 03:41:33;;;;;;;24.27;12.80;;;7.40;99.90;;;;;;5014003;28;20424;-72
2022/01/10 03:43:59;;;;;;;19.40;12.60;;;7.30;99.90;;;;;;5031780;28;20495;-72
2022/01/10 03:46:27;;;;;;;18.03;11.83;;;7.40;99.90;;;;;;5030794;28;20828;-72
2022/01/10 03:48:53;;;;;;;22.43;12.30;;;7.30;99.90;;;;;;5031835;28;20420;-72
2022/01/10 03:51:18;;;;;;;18.80;11.87;;;7.30;99.90;;;;;;5030834;28;20435;-72
2022/01/10 03:53:44;;;;;;;18.30;11.03;;;7.30;99.90;;;;;;5018515;28;20263;-72
2022/01/10 03:56:10;;;;;;;20.73;12.80;;;7.20;99.90;;;;;;5054687;28;20178;-72
2022/01/10 03:58:36;;;;;;;20.53;11.23;;;7.20;99.90;;;;;;5055526;28;20415;-72
2022/01/10 04:01:03;;;;;;;20.00;13.00;;;7.10;99.90;;;;;;5054902;28;20179;-72
2022/01/10 04:03:29;;;;;;;23.90;14.03;;;7.20;99.90;;;;;;5036783;28;20625;-72
2022/01/10 04:05:55;;;;;;;19.43;13.20;;;7.20;99.90;;;;;;5054803;28;20470;-72
2022/01/10 04:08:20;;;;;;;19.70;12.57;;;7.30;99.90;;;;;;5053795;28;20188;-72
2022/01/10 04:10:46;;;;;;;20.80;12.73;;;7.20;99.90;;;;;;5037797;28;20421;-72
2022/01/10 04:13:12;;;;;;;14.30;11.00;;;6.70;99.90;;;;;;5054400;28;20238;-72
2022/01/10 04:15:37;;;;;;;20.30;11.97;;;7.10;99.90;;;;;;5054746;28;20280;-72
2022/01/10 04:18:03;;;;;;;21.23;12.90;;;7.20;99.90;;;;;;5055196;28;20178;-72
2022/01/10 04:20:29;;;;;;;20.93;12.67;;;7.10;99.90;;;;;;5054022;28;20185;-72
2022/01/10 04:22:55;;;;;;;15.83;10.83;;;7.00;99.90;;;;;;5055163;28;20182;-72
2022/01/10 04:25:21;;;;;;;14.67;11.30;;;7.00;99.90;;;;;;5035905;28;20493;-72
2022/01/10 04:27:46;;;;;;;15.07;11.13;;;6.90;99.90;;;;;;5054720;28;20206;-72
2022/01/10 04:30:12;;;;;;;23.30;12.23;;;6.80;99.90;;;;;;5053850;28;20230;-72
2022/01/10 04:32:39;;;;;;;19.90;12.50;;;6.80;99.90;;;;;;5054837;28;20183;-71
2022/01/10 04:35:05;;;;;;;17.17;12.27;;;6.70;99.90;;;;;;5054871;28;20209;-71
2022/01/10 04:37:31;;;;;;;18.90;12.13;;;6.70;99.90;;;;;;5054375;28;20399;-71
2022/01/10 04:39:57;;;;;;;18.97;12.40;;;6.30;99.90;;;;;;5054775;28;20415;-71
2022/01/10 04:42:23;;;;;;;19.27;12.30;;;6.70;99.90;;;;;;5053638;28;20202;-70
2022/01/10 04:44:49;;;;;;;20.23;12.53;;;6.70;99.90;;;;;;5036704;28;20185;-71
2022/01/10 04:47:15;;;;;;;21.03;13.00;;;6.70;99.90;;;;;;5052950;28;20180;-72
2022/01/10 04:50:05;;;;;;;23.00;12.43;;;6.70;99.90;;;;;;5034695;28;20925;-72
2022/01/10 04:52:31;;;;;;;16.73;12.40;;;6.80;99.90;;;;;;5032976;28;20478;-71
2022/01/10 04:54:59;;;;;;;21.53;12.43;;;6.70;99.90;;;;;;5034373;28;20419;-71
2022/01/10 04:57:26;;;;;;;18.77;14.87;;;6.70;99.90;;;;;;5033850;28;20444;-71
2022/01/10 04:59:51;;;;;;;20.30;14.23;;;6.70;99.90;;;;;;5022770;28;20834;-71
2022/01/10 05:02:17;;;;;;;20.73;14.83;;;6.70;99.90;;;;;;5044078;28;20406;-71
2022/01/10 05:04:43;;;;;;;24.47;15.00;;;6.70;99.90;;;;;;5040175;28;20278;-71
2022/01/10 05:07:09;;;;;;;18.90;12.63;;;6.80;99.90;;;;;;5032399;28;20526;-71
2022/01/10 05:09:35;;;;;;;21.20;13.30;;;6.80;99.90;;;;;;5020322;28;20172;-71
2022/01/10 05:12:01;;;;;;;21.10;13.23;;;6.80;99.90;;;;;;5040020;28;20207;-71
2022/01/10 05:14:27;;;;;;;22.70;13.70;;;6.80;99.90;;;;;;5045489;28;20426;-71
2022/01/10 05:16:53;;;;;;;18.03;12.60;;;6.90;99.90;;;;;;5034949;28;20417;-71
2022/01/10 05:19:18;;;;;;;18.00;13.03;;;6.90;99.90;;;;;;5016118;28;20180;-71
2022/01/10 05:21:45;;;;;;;22.17;13.33;;;6.90;99.90;;;;;;5039801;28;20405;-71
2022/01/10 05:24:10;;;;;;;20.93;14.17;;;7.00;99.90;;;;;;5051899;28;20176;-71
2022/01/10 05:26:36;;;;;;;23.20;12.47;;;6.90;99.90;;;;;;5050314;28;20484;-71
2022/01/10 05:29:03;;;;;;;20.27;11.67;;;7.00;99.90;;;;;;5035221;28;20434;-71
2022/01/10 05:31:33;;;;;;;17.67;12.40;;;6.90;99.90;;;;;;5052561;28;20176;-71
2022/01/10 05:33:59;;;;;;;18.97;11.30;;;6.90;99.90;;;;;;5053712;28;20419;-71
2022/01/10 05:36:28;;;;;;;20.97;13.70;;;6.80;99.90;;;;;;5052383;28;20483;-71
2022/01/10 05:38:53;;;;;;;19.77;13.77;;;6.70;99.90;;;;;;5052850;28;20401;-70
2022/01/10 05:41:22;;;;;;;19.73;12.57;;;6.70;99.90;;;;;;5039881;28;20404;-72
2022/01/10 05:43:47;;;;;;;21.40;13.73;;;6.70;99.90;;;;;;5041714;28;20213;-72
2022/01/10 05:46:16;;;;;;;21.10;13.20;;;7.30;99.90;;;;;;5053053;28;20444;-73
2022/01/10 05:48:46;;;;;;;23.17;14.50;;;8.00;99.90;;;;;;5053583;28;20507;-72
2022/01/10 05:51:16;;;;;;;21.30;13.30;;;8.80;99.90;;;;;;5053274;28;20403;-72
2022/01/10 05:53:42;;;;;;;20.27;15.27;;;9.40;99.90;;;;;;5053669;28;20495;-72
2022/01/10 05:56:08;;;;;;;18.67;12.33;;;9.90;99.90;;;;;;5070943;28;20945;-72
2022/01/10 05:58:34;;;;;;;23.37;15.13;;;10.30;99.50;;;;;;5071274;28;20523;-72
2022/01/10 06:01:00;;;;;;;27.83;18.27;;;10.70;98.90;;;;;;5073665;28;20180;-72
2022/01/10 06:03:26;;;;;;;22.03;13.20;;;11.00;96.70;;;;;;5071606;28;20645;-72
2022/01/10 06:05:51;;;;;;;20.27;16.27;;;11.20;97.00;;;;;;5072927;28;20443;-72
2022/01/10 06:08:20;;;;;;;23.33;14.33;;;11.50;97.10;;;;;;5072836;28;20426;-73
2022/01/10 06:10:45;;;;;;;19.93;13.17;;;11.80;96.80;;;;;;5073604;28;20229;-72
2022/01/10 06:13:11;;;;;;;18.03;14.47;;;12.00;96.00;;;;;;5072975;28;20802;-72
2022/01/10 06:15:37;;;;;;;21.67;14.67;;;12.20;95.30;;;;;;5073059;28;20192;-73
2022/01/10 06:18:03;;;;;;;23.57;15.83;;;12.40;93.80;;;;;;5073249;28;20448;-72
2022/01/10 06:20:29;;;;;;;23.83;14.50;;;12.60;93.20;;;;;;5072454;28;20427;-73
2022/01/10 06:22:54;;;;;;;18.73;13.67;;;12.70;92.20;;;;;;5073167;28;20175;-72
2022/01/10 06:25:23;;;;;;;18.27;13.63;;;12.70;92.50;;;;;;5072292;28;20217;-73
2022/01/10 06:27:49;;;;;;;25.17;17.17;;;12.80;92.70;;;;;;5071904;28;20188;-72
2022/01/10 06:30:15;;;;;;;19.13;14.30;;;12.80;91.20;;;;;;5057937;28;20517;-73
2022/01/10 06:32:41;;;;;;;20.50;14.63;;;12.80;90.90;;;;;;5072641;28;20554;-72
2022/01/10 06:35:07;;;;;;;17.03;13.77;;;12.80;90.40;;;;;;5071803;28;20440;-72
2022/01/10 06:37:34;;;;;;;20.73;14.73;;;12.80;91.10;;;;;;5070790;28;20173;-72
2022/01/10 06:39:59;;;;;;;23.43;17.30;;;12.80;90.20;;;;;;5071103;28;20422;-72
2022/01/10 06:42:25;;;;;;;20.53;14.63;;;12.80;89.30;;;;;;5068201;28;20866;-72
2022/01/10 06:44:57;;;;;;;22.03;15.70;;;12.80;89.90;;;;;;5052674;28;20198;-72
2022/01/10 06:47:24;;;;;;;17.13;15.33;;;12.90;90.80;;;;;;5033075;28;20190;-68
2022/01/10 06:49:49;;;;;;;21.40;14.43;;;13.10;91.60;;;;;;5032619;28;20970;-68
2022/01/10 06:52:16;;;;;;;17.73;15.77;;;13.20;91.30;;;;;;5014300;28;20462;-69
2022/01/10 06:54:42;;;;;;;19.63;14.50;;;13.40;90.40;;;;;;5047665;28;20245;-67
2022/01/10 06:57:07;;;;;;;17.27;15.47;;;13.40;84.30;;;;;;5052469;28;20412;-67
2022/01/10 06:59:33;;;;;;;24.50;15.83;;;13.00;81.30;;;;;;5051996;28;20454;-66
2022/01/10 07:01:59;;;;;;;17.10;13.10;;;12.30;82.10;;;;;;5043381;28;20177;-66
2022/01/10 07:04:26;;;;;;;21.40;16.30;;;11.90;83.70;;;;;;5047306;28;20634;-65
2022/01/10 07:06:53;;;;;;;22.30;16.57;;;11.40;85.30;;;;;;5031617;28;20463;-66
2022/01/10 07:09:19;;;;;;;25.20;14.53;;;10.80;87.30;;;;;;5033659;28;20493;-66
2022/01/10 07:11:45;;;;;;;25.03;16.90;;;10.40;89.40;;;;;;5052456;28;20434;-65
2022/01/10 07:14:12;;;;;;;21.27;14.50;;;10.00;90.50;;;;;;5048877;28;20432;-66
2022/01/10 07:16:38;;;;;;;22.20;14.63;;;9.70;92.00;;;;;;5042988;28;20993;-66
2022/01/10 07:19:05;;;;;;;20.93;14.03;;;9.30;92.90;;;;;;5014013;28;20417;-66
2022/01/10 07:21:31;;;;;;;20.73;14.90;;;8.60;94.60;;;;;;5032956;28;20897;-65
2022/01/10 07:23:57;;;;;;;21.43;14.30;;;8.50;95.60;;;;;;5036147;28;20429;-65
2022/01/10 07:26:23;;;;;;;18.63;14.47;;;8.30;96.20;;;;;;5016111;28;20207;-67
2022/01/10 07:28:48;;;;;;;18.33;14.70;;;8.10;96.90;;;;;;5050994;28;20267;-67
2022/01/10 07:31:15;;;;;;;23.20;15.13;;;8.00;97.70;;;;;;5051483;28;20431;-66
2022/01/10 07:33:40;;;;;;;20.27;13.33;;;7.90;98.20;;;;;;5036400;28;20247;-66
2022/01/10 07:36:07;;;;;;;27.53;14.93;;;7.90;98.50;;;;;;5047011;28;20431;-66
2022/01/10 07:38:35;;;;;;;20.07;15.47;;;7.80;98.80;;;;;;5054784;28;20510;-66
2022/01/10 07:41:03;;;;;;;20.43;16.10;;;7.80;99.20;;;;;;5055513;28;20444;-67
2022/01/10 07:43:29;;;;;;;24.67;15.63;;;7.60;99.50;;;;;;5054006;28;20469;-66
2022/01/10 07:45:54;;;;;;;19.90;13.90;;;7.50;99.90;;;;;;5070932;28;20484;-66
2022/01/10 07:48:20;;;;;;;23.70;15.27;;;7.40;99.90;;;;;;5054773;28;20500;-67
2022/01/10 07:50:46;;;;;;;21.30;13.50;;;7.30;99.90;;;;;;5065587;28;20203;-66
2022/01/10 07:53:12;;;;;;;19.63;15.00;;;7.20;99.90;;;;;;5074337;28;20904;-66
2022/01/10 07:55:38;;;;;;;20.93;13.70;;;7.20;99.90;;;;;;5074652;28;20186;-66
2022/01/10 07:58:03;;;;;;;24.73;17.10;;;7.10;99.90;;;;;;5076047;28;20265;-66
2022/01/10 08:00:29;;;;;;;23.80;16.13;;;7.00;99.90;;;;;;5075415;28;20911;-66
2022/01/10 08:02:55;;;;;;;25.13;14.40;;;6.90;99.90;;;;;;5071679;28;20635;-66
2022/01/10 08:05:20;;;;;;;21.67;14.00;;;6.90;99.90;;;;;;5073527;28;20195;-68
2022/01/10 08:07:46;;;;;;;20.47;17.90;;;6.90;99.90;;;;;;5066829;28;20278;-66
2022/01/10 08:10:12;;;;;;;24.23;16.17;;;6.80;99.90;;;;;;5063217;28;20176;-66
2022/01/10 08:12:38;;;;;;;19.00;16.00;;;6.80;99.90;;;;;;5059186;28;20258;-66
2022/01/10 08:15:04;;;;;;;24.83;17.23;;;6.80;99.90;;;;;;5073855;28;20191;-66
2022/01/10 08:17:30;;;;;;;20.23;14.07;;;6.70;99.90;;;;;;5074615;28;20188;-68
2022/01/10 08:19:55;;;;;;;23.37;15.77;;;6.80;99.90;;;;;;5065515;28;20189;-67
2022/01/10 08:22:21;;;;;;;21.90;15.13;;;6.80;99.90;;;;;;5055142;28;20468;-68
2022/01/10 08:24:49;;;;;;;23.73;17.17;;;6.70;99.90;;;;;;5055740;28;20286;-67
2022/01/10 08:27:15;;;;;;;21.63;16.43;;;6.70;99.90;;;;;;5055365;28;20306;-68
2022/01/10 08:29:42;;;;;;;23.87;13.80;;;6.80;99.90;;;;;;5072692;28;20429;-67
2022/01/10 08:32:08;;;;;;;24.20;16.60;;;6.80;99.90;;;;;;5075236;28;20180;-68
2022/01/10 08:34:34;;;;;;;22.60;14.20;;;6.80;99.90;;;;;;5074731;28;20405;-68
2022/01/10 08:37:00;;;;;;;21.20;15.30;;;6.80;99.90;;;;;;5073907;28;20408;-68
2022/01/10 08:39:26;;;;;;;19.83;14.57;;;6.80;99.90;;;;;;5074314;28;20459;-68
2022/01/10 08:41:51;;;;;;;22.53;14.47;;;6.80;99.90;;;;;;5073767;28;20179;-68
2022/01/10 08:44:17;;;;;;;24.13;15.37;;;6.80;99.90;;;;;;5057964;28;20226;-68
2022/01/10 08:46:44;;;;;;;23.63;13.50;;;6.80;99.90;;;;;;5036549;28;20279;-67
2022/01/10 08:49:12;;;;;;;23.00;14.90;;;6.90;99.90;;;;;;5055209;28;20433;-67
2022/01/10 08:51:41;;;;;;;22.73;15.07;;;6.60;99.90;;;;;;5053911;28;20416;-67
2022/01/10 08:54:08;;;;;;;22.20;15.50;;;6.90;99.90;;;;;;5040328;28;20404;-67
2022/01/10 08:56:34;;;;;;;28.53;16.70;;;6.90;99.90;;;;;;5053181;28;20518;-67
2022/01/10 08:59:00;;;;;;;31.67;17.90;;;6.80;99.90;;;;;;5054367;28;20875;-67
2022/01/10 09:01:26;;;;;;;25.83;15.87;;;7.00;99.90;;;;;;5053530;28;20184;-67
2022/01/10 09:03:53;;;;;;;30.47;16.80;;;7.10;99.90;;;;;;5053896;28;20484;-67
2022/01/10 09:06:20;;;;;;;26.33;17.93;;;7.10;99.90;;;;;;5054436;28;20416;-67
2022/01/10 09:08:47;;;;;;;24.13;15.80;;;7.10;99.90;;;;;;5036605;28;20839;-67
2022/01/10 09:11:14;;;;;;;23.03;15.07;;;7.10;99.90;;;;;;5054541;28;20739;-67
2022/01/10 09:13:40;;;;;;;27.57;17.70;;;7.20;99.90;;;;;;5053705;28;20446;-67
2022/01/10 09:16:07;;;;;;;26.90;15.40;;;7.20;99.90;;;;;;5054496;28;20895;-67
2022/01/10 09:18:33;;;;;;;32.43;16.97;;;7.30;99.90;;;;;;5036342;28;20181;-67
2022/01/10 09:20:59;;;;;;;22.93;15.00;;;7.30;99.90;;;;;;5054116;28;20761;-67
2022/01/10 09:23:26;;;;;;;24.30;13.60;;;7.30;99.90;;;;;;5053427;28;20411;-67
2022/01/10 09:25:52;;;;;;;22.60;15.40;;;7.60;99.90;;;;;;5053515;28;20485;-67
2022/01/10 09:28:19;;;;;;;20.30;14.13;;;8.20;99.90;;;;;;5054165;28;20420;-67
2022/01/10 09:30:46;;;;;;;23.20;15.93;;;9.00;99.90;;;;;;5052908;28;20406;-67
2022/01/10 09:33:12;;;;;;;20.87;14.77;;;9.90;98.90;;;;;;5053686;28;20419;-67
2022/01/10 09:35:38;;;;;;;24.93;14.80;;;10.90;96.70;;;;;;5050587;28;20417;-68
2022/01/10 09:38:04;;;;;;;19.93;13.93;;;11.90;93.50;;;;;;5039352;28;20438;-73
2022/01/10 09:40:29;;;;;;;21.00;14.93;;;12.80;91.80;;;;;;5035027;28;20266;-73
2022/01/10 09:42:55;;;;;;;24.10;16.73;;;13.40;89.60;;;;;;5052910;28;20229;-74
2022/01/10 09:45:21;;;;;;;19.87;15.80;;;13.90;86.70;;;;;;5052661;28;20296;-74
2022/01/10 09:47:47;;;;;;;21.43;17.33;;;14.40;83.90;;;;;;5052558;28;20180;-74
2022/01/10 09:50:16;;;;;;;26.00;16.70;;;14.80;81.00;;;;;;5048515;28;20486;-74
2022/01/10 09:52:44;;;;;;;23.17;17.43;;;15.20;78.90;;;;;;5032889;28;20682;-74
2022/01/10 09:55:10;;;;;;;21.10;16.77;;;15.70;76.70;;;;;;5015932;28;20827;-73
2022/01/10 09:57:36;;;;;;;21.47;17.63;;;15.90;75.20;;;;;;5033114;28;20492;-75
2022/01/10 10:00:04;;;;;;;26.33;17.10;;;16.00;75.10;;;;;;5036427;28;20506;-74
2022/01/10 10:02:35;;;;;;;21.90;17.47;;;16.00;72.60;;;;;;5035035;28;20239;-74
2022/01/10 10:05:05;;;;;;;25.83;17.97;;;15.50;73.10;;;;;;5035782;28;20402;-73
2022/01/10 10:07:32;;;;;;;26.37;19.30;;;15.00;75.30;;;;;;5053181;28;20427;-72
2022/01/10 10:10:07;;;;;;;26.60;20.07;;;14.60;77.00;;;;;;5052491;28;20426;-74
2022/01/10 10:12:33;;;;;;;25.07;18.40;;;14.20;79.40;;;;;;5032641;28;20432;-74
2022/01/10 10:15:07;;;;;;;29.37;21.47;;;13.90;80.00;;;;;;5037533;28;20430;-76
2022/01/10 10:17:35;;;;;;;26.50;18.63;;;13.90;80.80;;;;;;5025803;28;20437;-74
2022/01/10 10:20:22;;;;;;;23.40;18.83;;;13.90;81.40;;;;;;5049700;28;20409;-73
2022/01/10 10:22:51;;;;;;;22.47;18.37;;;13.70;83.20;;;;;;5031588;28;20438;-74
2022/01/10 10:25:17;;;;;;;23.17;17.23;;;13.90;83.80;;;;;;5032174;28;20515;-74
2022/01/10 10:27:47;;;;;;;23.30;19.77;;;14.10;82.70;;;;;;5031438;28;20509;-74
2022/01/10 10:30:19;;;;;;;23.63;19.37;;;14.40;81.20;;;;;;5037165;28;20417;-73
2022/01/10 10:32:46;;;;;;;21.93;15.63;;;14.60;80.80;;;;;;5041565;28;20418;-74
2022/01/10 10:35:12;;;;;;;20.80;16.87;;;14.80;79.70;;;;;;5041435;28;20431;-74
2022/01/10 10:37:40;;;;;;;25.70;17.60;;;14.90;80.00;;;;;;5036151;28;20500;-73
2022/01/10 10:40:09;;;;;;;23.43;17.50;;;15.10;79.90;;;;;;5037369;28;20420;-74
2022/01/10 10:42:38;;;;;;;20.90;16.17;;;15.10;79.10;;;;;;5033234;28;20495;-74
2022/01/10 10:45:07;;;;;;;20.33;15.17;;;14.90;78.90;;;;;;5037961;28;20914;-73
2022/01/10 10:47:40;;;;;;;25.30;15.67;;;14.90;78.50;;;;;;5013213;28;20430;-74
2022/01/10 10:50:07;;;;;;;20.90;16.00;;;14.90;78.50;;;;;;5027333;28;20891;-72
2022/01/10 10:52:37;;;;;;;20.20;14.17;;;14.70;77.30;;;;;;5031057;28;20421;-73
2022/01/10 10:55:12;;;;;;;17.90;14.07;;;14.60;79.10;;;;;;5031846;28;20437;-73
2022/01/10 10:57:38;;;;;;;17.60;14.00;;;14.50;78.30;;;;;;5045983;28;20420;-73
2022/01/10 11:00:11;;;;;;;24.30;14.23;;;14.20;79.20;;;;;;5046659;28;20893;-74
2022/01/10 11:02:38;;;;;;;18.27;15.40;;;14.00;78.60;;;;;;5033315;28;20424;-74
2022/01/10 11:05:06;;;;;;;17.20;12.83;;;13.70;79.00;;;;;;5043832;28;20501;-73
2022/01/10 11:07:34;;;;;;;17.73;13.53;;;13.40;80.80;;;;;;5026442;28;20434;-73
2022/01/10 11:10:01;;;;;;;22.93;15.60;;;13.20;81.40;;;;;;5050839;28;20489;-73
2022/01/10 11:12:28;;;;;;;19.17;14.00;;;13.20;83.50;;;;;;5036449;28;20422;-74
2022/01/10 11:14:56;;;;;;;21.80;13.40;;;13.20;83.80;;;;;;5039594;28;20431;-74
2022/01/10 11:17:22;;;;;;;18.03;14.27;;;13.20;84.20;;;;;;5039526;28;20507;-73
2022/01/10 11:20:14;;;;;;;20.57;15.90;;;13.20;82.60;;;;;;5032885;28;20478;-73
2022/01/10 11:22:41;;;;;;;26.73;15.73;;;13.20;85.40;;;;;;5035032;28;20468;-73
2022/01/10 11:25:24;;;;;;;21.90;15.10;;;13.20;85.20;;;;;;5033590;28;20488;-73
2022/01/10 11:27:51;;;;;;;22.17;14.43;;;13.30;84.60;;;;;;5033033;28;20431;-73
2022/01/10 11:30:30;;;;;;;11.10;9.43;;;13.40;84.50;;;;;;5051165;28;20447;-74
2022/01/10 11:33:07;;;;;;;20.03;13.13;;;14.00;94.40;;;;;;5051511;28;20459;-73
2022/01/10 11:35:40;;;;;;;17.67;14.53;;;15.00;84.20;;;;;;5033396;28;20756;-73
2022/01/10 11:38:29;;;;;;;18.17;11.67;;;15.30;80.90;;;;;;5033044;28;20453;-73
2022/01/10 11:41:08;;;;;;;18.87;13.67;;;15.60;79.00;;;;;;5036845;28;20422;-73
2022/01/10 11:44:17;;;;;;;22.37;13.60;;;16.00;78.00;;;;;;5043759;28;20475;-72
2022/01/10 11:46:47;;;;;;;18.43;15.20;;;16.10;74.00;;;;;;5043099;28;20483;-72
2022/01/10 11:49:13;;;;;;;18.70;13.87;;;16.20;74.10;;;;;;5039412;28;20427;-74
2022/01/10 11:51:50;;;;;;;19.70;13.90;;;16.10;72.80;;;;;;5033134;28;20431;-74
2022/01/10 11:54:28;;;;;;;18.63;13.80;;;15.80;72.50;;;;;;5051526;28;20531;-73
2022/01/10 11:57:09;;;;;;;16.90;11.87;;;15.50;73.70;;;;;;5050807;28;20410;-75
2022/01/10 11:59:42;;;;;;;22.30;13.77;;;15.20;73.80;;;;;;5030434;28;20814;-74
2022/01/10 12:02:11;;;;;;;19.00;12.00;;;15.00;74.50;;;;;;5032218;28;20405;-74
2022/01/10 12:05:00;;;;;;;15.50;11.17;;;14.70;74.80;;;;;;5031716;28;20418;-72
2022/01/10 12:07:27;;;;;;;15.77;10.80;;;14.40;75.00;;;;;;5042265;28;20425;-72
2022/01/10 12:09:55;;;;;;;17.50;12.60;;;14.10;76.20;;;;;;5033895;28;20409;-72
2022/01/10 12:12:24;;;;;;;15.77;12.03;;;13.90;77.80;;;;;;5033916;28;20914;-71
2022/01/10 12:14:52;;;;;;;15.67;11.90;;;13.60;78.60;;;;;;5033314;28;20525;-70
2022/01/10 12:17:18;;;;;;;19.60;12.17;;;13.30;78.50;;;;;;5055006;28;20755;-71
2022/01/10 12:19:44;;;;;;;16.40;11.23;;;13.00;80.00;;;;;;5037323;28;20500;-71
2022/01/10 12:22:10;;;;;;;15.40;10.13;;;12.90;81.40;;;;;;5055999;28;20420;-70
2022/01/10 12:24:38;;;;;;;15.00;10.63;;;12.80;81.00;;;;;;5055424;28;20292;-71
2022/01/10 12:27:06;;;;;;;17.70;10.50;;;12.70;82.10;;;;;;5037934;28;21015;-70
2022/01/10 12:29:33;;;;;;;19.17;12.20;;;12.60;83.80;;;;;;5037089;28;20404;-73
2022/01/10 12:32:00;;;;;;;19.43;10.50;;;12.40;84.60;;;;;;5055139;28;20429;-70
2022/01/10 12:34:26;;;;;;;15.43;10.30;;;12.30;84.70;;;;;;5055426;28;20431;-71
2022/01/10 12:36:52;;;;;;;14.20;9.90;;;12.10;86.00;;;;;;5054946;28;20432;-70
2022/01/10 12:39:23;;;;;;;15.20;9.40;;;12.00;86.90;;;;;;5046860;28;20924;-70
2022/01/10 12:41:50;;;;;;;15.13;10.20;;;12.00;86.50;;;;;;5050404;28;20175;-70
2022/01/10 12:44:17;;;;;;;13.13;8.90;;;12.00;86.40;;;;;;5063787;28;20465;-70
2022/01/10 12:46:44;;;;;;;16.50;10.03;;;12.00;86.10;;;;;;5057711;28;20467;-70
2022/01/10 12:49:12;;;;;;;12.67;9.80;;;12.00;86.60;;;;;;5065464;28;20491;-69
2022/01/10 12:51:48;;;;;;;15.33;10.10;;;11.90;87.80;;;;;;5067893;28;20443;-70
2022/01/10 12:54:29;;;;;;;22.17;12.50;;;11.90;87.80;;;;;;5068107;28;20430;-69